Time;durP1;ratioP1;P1;durP2;ratioP2;P2;SDS_P1;SDS_P2;PMS_P1;PMS_P2;Temp;Humidity;BMP_temperature;BMP_pressure;BME280_temperature;BME280_humidity;BME280_pressure;Samples;Min_cycle;Max_cycle;Signal;HPM_P1;HPM_P2
2022/03/12 00:01:54;;;;;;;12.48;6.50;;;6.60;96.90;;;;;;5054646;28;20041;-78
2022/03/12 00:04:20;;;;;;;11.13;6.43;;;6.60;96.90;;;;;;5053358;28;20037;-77
2022/03/12 00:06:47;;;;;;;9.75;6.22;;;6.70;96.90;;;;;;5074704;28;20123;-77
2022/03/12 00:09:12;;;;;;;12.25;7.45;;;6.60;96.80;;;;;;5074693;28;20125;-77
2022/03/12 00:11:51;;;;;;;11.77;7.13;;;6.60;96.70;;;;;;5057584;28;20040;-77
2022/03/12 00:14:22;;;;;;;10.90;6.57;;;6.60;96.50;;;;;;5074255;28;20028;-77
2022/03/12 00:16:49;;;;;;;12.40;7.30;;;6.60;96.60;;;;;;5054459;28;20052;-77
2022/03/12 00:19:15;;;;;;;14.35;6.97;;;6.60;96.50;;;;;;5054343;28;20045;-77
2022/03/12 00:21:44;;;;;;;21.63;7.15;;;6.60;96.50;;;;;;5054391;28;20041;-76
2022/03/12 00:24:14;;;;;;;12.70;6.10;;;6.60;96.50;;;;;;5061540;28;20090;-76
2022/03/12 00:26:42;;;;;;;11.82;6.68;;;6.60;96.50;;;;;;5074522;28;20041;-76
2022/03/12 00:29:14;;;;;;;12.50;6.68;;;6.60;96.60;;;;;;5058110;28;20049;-76
2022/03/12 00:31:53;;;;;;;15.25;6.60;;;6.60;96.50;;;;;;5074163;28;20051;-76
2022/03/12 00:34:19;;;;;;;13.02;6.75;;;6.60;96.40;;;;;;5074118;28;20052;-76
2022/03/12 00:36:45;;;;;;;15.68;6.82;;;6.80;96.50;;;;;;5074096;28;20090;-76
2022/03/12 00:39:35;;;;;;;11.88;6.72;;;6.60;96.50;;;;;;5057510;28;20083;-77
2022/03/12 00:42:12;;;;;;;13.05;6.95;;;6.80;96.40;;;;;;5044132;28;20519;-77
2022/03/12 00:44:38;;;;;;;12.75;6.47;;;7.40;96.60;;;;;;5074997;28;20056;-77
2022/03/12 00:47:04;;;;;;;13.60;7.07;;;6.60;96.40;;;;;;5074986;28;20040;-77
2022/03/12 00:49:30;;;;;;;11.85;6.63;;;6.60;96.40;;;;;;5060335;28;20056;-77
2022/03/12 00:51:56;;;;;;;11.18;6.57;;;6.60;96.40;;;;;;5060420;28;20078;-77
2022/03/12 00:54:22;;;;;;;13.35;6.75;;;6.90;96.50;;;;;;5076812;28;20599;-77
2022/03/12 00:56:47;;;;;;;12.15;6.93;;;7.10;96.70;;;;;;5095197;28;20419;-77
2022/03/12 00:59:13;;;;;;;9.85;6.60;;;6.50;96.50;;;;;;5055947;28;20101;-77
2022/03/12 01:01:39;;;;;;;13.30;7.00;;;6.60;96.80;;;;;;5089924;28;20081;-77
2022/03/12 01:04:06;;;;;;;14.27;6.68;;;6.60;96.70;;;;;;5059973;28;20048;-77
2022/03/12 01:06:37;;;;;;;15.60;6.88;;;6.60;96.70;;;;;;5076783;28;20585;-77
2022/03/12 01:09:03;;;;;;;11.60;6.63;;;6.50;96.60;;;;;;5059850;28;20119;-77
2022/03/12 01:11:34;;;;;;;12.45;6.80;;;6.50;96.70;;;;;;5060314;28;20582;-77
2022/03/12 01:14:00;;;;;;;12.18;7.20;;;6.50;96.90;;;;;;5075644;28;20189;-78
2022/03/12 01:16:26;;;;;;;15.95;6.93;;;6.50;97.00;;;;;;5076296;28;20073;-78
2022/03/12 01:18:51;;;;;;;13.52;7.18;;;6.50;97.10;;;;;;5060106;28;20044;-78
2022/03/12 01:21:20;;;;;;;13.35;6.97;;;6.50;97.00;;;;;;5094939;28;20040;-78
2022/03/12 01:23:50;;;;;;;16.48;7.13;;;6.50;96.90;;;;;;5076314;28;20043;-76
2022/03/12 01:26:17;;;;;;;15.65;7.05;;;6.50;96.90;;;;;;5094634;28;20557;-77
2022/03/12 01:28:44;;;;;;;13.40;7.25;;;6.50;97.20;;;;;;5076624;28;20043;-77
2022/03/12 01:31:10;;;;;;;12.52;7.40;;;6.50;96.80;;;;;;5093154;28;20074;-77
2022/03/12 01:33:36;;;;;;;12.38;7.35;;;6.50;96.80;;;;;;5094496;28;20048;-76
2022/03/12 01:36:01;;;;;;;10.50;7.03;;;6.50;96.80;;;;;;5076026;28;20028;-75
2022/03/12 01:38:47;;;;;;;11.88;7.20;;;6.50;96.70;;;;;;5088067;28;20032;-75
2022/03/12 01:41:14;;;;;;;13.57;7.68;;;6.50;96.60;;;;;;5039644;28;20056;-76
2022/03/12 01:43:48;;;;;;;13.38;7.68;;;6.40;96.70;;;;;;5058047;28;20119;-76
2022/03/12 01:46:14;;;;;;;16.55;7.65;;;6.50;96.80;;;;;;5077445;28;20107;-76
2022/03/12 01:48:59;;;;;;;12.60;7.50;;;6.50;96.90;;;;;;5058291;28;20044;-76
2022/03/12 01:51:29;;;;;;;13.95;7.97;;;6.90;96.90;;;;;;5076002;28;20048;-77
2022/03/12 01:53:55;;;;;;;13.80;6.90;;;6.40;96.80;;;;;;5094109;28;20408;-77
2022/03/12 01:56:29;;;;;;;12.38;7.32;;;7.20;97.10;;;;;;5075756;28;20042;-76
2022/03/12 01:58:55;;;;;;;13.88;8.05;;;6.40;96.60;;;;;;5059009;28;20036;-76
2022/03/12 02:01:28;;;;;;;11.52;7.75;;;6.40;96.80;;;;;;5093840;28;20039;-76
2022/03/12 02:03:56;;;;;;;14.07;7.80;;;6.50;96.70;;;;;;5074239;28;20378;-76
2022/03/12 02:06:24;;;;;;;12.82;7.32;;;6.40;96.70;;;;;;5075354;28;20051;-76
2022/03/12 02:08:54;;;;;;;13.45;7.20;;;6.40;96.70;;;;;;5075558;28;20070;-76
2022/03/12 02:11:26;;;;;;;14.10;7.78;;;7.20;96.90;;;;;;5075876;28;20392;-76
2022/03/12 02:14:09;;;;;;;17.23;7.68;;;6.40;96.70;;;;;;5075383;28;20487;-76
2022/03/12 02:16:36;;;;;;;14.88;7.38;;;6.40;96.70;;;;;;5075378;28;20102;-76
2022/03/12 02:19:02;;;;;;;13.20;7.40;;;6.50;96.90;;;;;;5053582;28;20047;-76
2022/03/12 02:21:43;;;;;;;13.18;7.43;;;6.50;96.90;;;;;;5048725;28;20092;-76
2022/03/12 02:24:11;;;;;;;12.52;7.40;;;6.40;96.90;;;;;;5075455;28;20392;-76
2022/03/12 02:26:38;;;;;;;13.25;7.82;;;6.40;97.10;;;;;;5075170;28;20043;-76
2022/03/12 02:29:08;;;;;;;15.52;8.27;;;6.30;97.00;;;;;;5075480;28;20392;-76
2022/03/12 02:31:39;;;;;;;15.45;7.10;;;6.30;97.10;;;;;;5075182;28;20381;-76
2022/03/12 02:34:07;;;;;;;13.15;7.47;;;6.40;97.30;;;;;;5074771;28;20036;-76
2022/03/12 02:36:34;;;;;;;11.18;7.20;;;6.30;97.10;;;;;;5074219;28;20511;-76
2022/03/12 02:39:03;;;;;;;11.98;7.00;;;6.30;97.30;;;;;;5091969;28;20043;-76
2022/03/12 02:41:28;;;;;;;16.05;8.35;;;6.20;97.20;;;;;;5054491;28;20043;-76
2022/03/12 02:43:54;;;;;;;13.00;7.30;;;6.20;97.20;;;;;;5049638;28;20040;-77
2022/03/12 02:46:20;;;;;;;12.07;7.63;;;6.20;97.20;;;;;;5071510;28;20052;-76
2022/03/12 02:48:51;;;;;;;12.32;7.38;;;6.20;97.10;;;;;;5060714;28;20051;-76
2022/03/12 02:51:21;;;;;;;16.13;7.70;;;6.20;97.20;;;;;;5074771;28;20056;-77
2022/03/12 02:53:53;;;;;;;11.00;7.28;;;6.60;97.20;;;;;;5074467;28;20048;-76
2022/03/12 02:56:19;;;;;;;11.18;7.43;;;6.20;97.40;;;;;;5074174;28;20113;-76
2022/03/12 02:58:48;;;;;;;13.77;7.32;;;6.20;97.60;;;;;;5074516;28;20048;-77
2022/03/12 03:01:14;;;;;;;12.52;7.40;;;6.20;97.50;;;;;;5074778;28;20043;-76
2022/03/12 03:03:45;;;;;;;13.90;7.30;;;6.20;97.90;;;;;;5057679;28;20036;-76
2022/03/12 03:06:31;;;;;;;12.80;7.38;;;6.30;97.60;;;;;;5092584;28;20134;-76
2022/03/12 03:09:07;;;;;;;15.63;7.90;;;6.60;97.70;;;;;;5075018;28;20450;-76
2022/03/12 03:11:35;;;;;;;14.80;7.45;;;6.20;97.90;;;;;;5092475;28;20074;-76
2022/03/12 03:14:09;;;;;;;11.73;7.78;;;6.20;97.80;;;;;;5073837;28;20408;-76
2022/03/12 03:16:37;;;;;;;12.05;7.93;;;6.20;97.70;;;;;;5073771;28;20036;-76
2022/03/12 03:19:03;;;;;;;14.02;7.45;;;6.20;97.90;;;;;;5092847;28;20391;-76
2022/03/12 03:21:29;;;;;;;14.30;7.68;;;7.00;98.20;;;;;;5092659;28;20032;-76
2022/03/12 03:24:00;;;;;;;13.57;7.72;;;6.90;98.10;;;;;;5092848;28;20066;-76
2022/03/12 03:26:38;;;;;;;17.05;7.75;;;6.20;98.00;;;;;;5074742;28;20456;-78
2022/03/12 03:29:06;;;;;;;14.48;7.72;;;6.10;98.20;;;;;;5070093;28;20040;-78
2022/03/12 03:31:32;;;;;;;13.70;8.02;;;6.90;98.30;;;;;;5068967;28;20043;-78
2022/03/12 03:33:58;;;;;;;13.90;7.70;;;6.40;98.30;;;;;;5092650;28;20104;-77
2022/03/12 03:36:24;;;;;;;12.10;7.32;;;6.10;98.30;;;;;;5073792;28;20040;-77
2022/03/12 03:38:50;;;;;;;10.98;7.57;;;6.80;98.50;;;;;;5057511;28;20048;-77
2022/03/12 03:41:17;;;;;;;10.88;7.68;;;6.10;98.50;;;;;;5074166;28;20071;-77
2022/03/12 03:43:48;;;;;;;11.98;8.00;;;6.10;98.70;;;;;;5074281;28;20050;-77
2022/03/12 03:46:19;;;;;;;11.75;7.05;;;6.70;98.70;;;;;;5049154;28;20048;-77
2022/03/12 03:48:48;;;;;;;12.68;7.70;;;6.10;98.40;;;;;;5074284;28;20051;-77
2022/03/12 03:51:14;;;;;;;13.93;7.15;;;6.10;98.30;;;;;;5057466;28;20165;-77
2022/03/12 03:53:40;;;;;;;11.98;8.02;;;6.20;98.40;;;;;;5057345;28;20051;-77
2022/03/12 03:56:06;;;;;;;12.82;7.03;;;6.10;98.40;;;;;;5092354;28;20040;-77
2022/03/12 03:58:32;;;;;;;11.43;7.45;;;6.00;98.70;;;;;;5070841;28;20033;-77
2022/03/12 04:01:01;;;;;;;11.25;7.50;;;6.00;98.50;;;;;;5064211;28;20114;-76
2022/03/12 04:03:36;;;;;;;13.68;7.93;;;6.00;98.60;;;;;;5065474;28;20036;-76
2022/03/12 04:06:04;;;;;;;10.25;6.95;;;6.00;98.70;;;;;;5057570;28;20032;-76
2022/03/12 04:08:31;;;;;;;12.27;7.75;;;6.00;98.50;;;;;;5057663;28;20535;-76
2022/03/12 04:10:57;;;;;;;13.10;7.47;;;6.90;98.80;;;;;;5092380;28;20032;-76
2022/03/12 04:13:26;;;;;;;12.15;7.32;;;6.00;98.70;;;;;;5057977;28;20078;-76
2022/03/12 04:15:52;;;;;;;13.60;7.72;;;6.30;98.80;;;;;;5057374;28;20486;-76
2022/03/12 04:18:21;;;;;;;13.15;7.60;;;6.40;98.80;;;;;;5057650;28;20037;-75
2022/03/12 04:20:48;;;;;;;13.25;7.18;;;5.70;98.60;;;;;;5091132;28;20404;-76
2022/03/12 04:23:21;;;;;;;11.57;7.70;;;5.90;98.70;;;;;;5092426;28;20374;-76
2022/03/12 04:25:52;;;;;;;13.23;7.60;;;5.80;98.60;;;;;;5092081;28;20453;-76
2022/03/12 04:28:24;;;;;;;12.60;7.85;;;6.20;98.80;;;;;;5094888;28;20032;-76
2022/03/12 04:30:51;;;;;;;14.73;7.53;;;5.80;98.70;;;;;;5056899;28;20036;-76
2022/03/12 04:33:19;;;;;;;11.45;7.00;;;5.80;98.80;;;;;;5057249;28;20084;-76
2022/03/12 04:35:52;;;;;;;12.40;7.35;;;6.70;99.00;;;;;;5075626;28;20036;-76
2022/03/12 04:38:23;;;;;;;13.90;7.35;;;6.30;99.50;;;;;;5057363;28;20115;-77
2022/03/12 04:40:49;;;;;;;11.60;7.75;;;5.70;99.00;;;;;;5047842;28;20093;-77
2022/03/12 04:43:15;;;;;;;17.02;8.20;;;5.70;99.00;;;;;;5077174;28;20040;-78
2022/03/12 04:45:45;;;;;;;13.77;7.15;;;5.70;99.10;;;;;;5077553;28;20050;-78
2022/03/12 04:48:17;;;;;;;10.65;6.82;;;5.70;99.20;;;;;;5077559;28;20105;-78
2022/03/12 04:50:43;;;;;;;15.40;7.00;;;6.10;99.30;;;;;;5077187;28;20512;-78
2022/03/12 04:53:10;;;;;;;13.52;7.03;;;5.60;99.20;;;;;;5077076;28;20512;-78
2022/03/12 04:55:37;;;;;;;12.25;7.50;;;5.70;99.20;;;;;;5076507;28;20043;-78
2022/03/12 04:58:07;;;;;;;14.18;7.47;;;5.70;99.20;;;;;;5077159;28;20232;-77
2022/03/12 05:00:36;;;;;;;13.85;7.85;;;5.70;99.10;;;;;;5060274;28;20184;-77
2022/03/12 05:03:10;;;;;;;12.90;7.32;;;5.60;99.20;;;;;;5060582;28;20455;-77
2022/03/12 05:05:44;;;;;;;10.63;6.55;;;5.80;99.40;;;;;;5077074;28;20468;-77
2022/03/12 05:08:13;;;;;;;14.40;6.95;;;5.70;99.20;;;;;;5059886;28;20042;-77
2022/03/12 05:10:41;;;;;;;10.23;7.25;;;5.60;99.20;;;;;;5056889;28;20036;-77
2022/03/12 05:13:07;;;;;;;21.90;7.78;;;5.60;99.40;;;;;;5076131;28;20055;-77
2022/03/12 05:15:38;;;;;;;12.48;7.07;;;6.00;99.70;;;;;;5076769;28;20032;-77
2022/03/12 05:18:11;;;;;;;10.43;7.18;;;5.60;99.70;;;;;;5076468;28;20127;-78
2022/03/12 05:20:39;;;;;;;14.63;7.78;;;6.50;99.90;;;;;;5076753;28;20043;-79
2022/03/12 05:23:14;;;;;;;11.25;6.95;;;5.80;99.80;;;;;;5059873;28;20036;-79
2022/03/12 05:25:43;;;;;;;13.68;7.20;;;5.60;99.80;;;;;;5076428;28;20407;-79
2022/03/12 05:28:25;;;;;;;14.93;7.80;;;5.60;99.80;;;;;;5094273;28;20066;-79
2022/03/12 05:30:54;;;;;;;12.85;7.18;;;5.60;99.50;;;;;;5093729;28;20064;-79
2022/03/12 05:33:20;;;;;;;13.52;7.55;;;5.60;99.70;;;;;;5094552;28;20032;-78
2022/03/12 05:35:48;;;;;;;12.10;7.35;;;5.60;99.90;;;;;;5059874;28;20046;-78
2022/03/12 05:38:14;;;;;;;10.32;6.88;;;5.70;99.90;;;;;;5075529;28;20086;-78
2022/03/12 05:40:41;;;;;;;12.95;7.30;;;5.60;99.90;;;;;;5075635;28;20503;-78
2022/03/12 05:43:15;;;;;;;10.15;6.88;;;5.80;99.80;;;;;;5075828;28;20105;-78
2022/03/12 05:45:45;;;;;;;12.02;6.82;;;5.70;99.50;;;;;;5055949;28;20393;-78
2022/03/12 05:48:12;;;;;;;11.48;6.75;;;5.60;99.20;;;;;;5058103;28;20036;-78
2022/03/12 05:50:39;;;;;;;9.15;6.97;;;5.60;99.30;;;;;;5059159;28;20075;-78
2022/03/12 05:53:13;;;;;;;12.75;6.90;;;5.60;99.10;;;;;;5055506;28;20037;-78
2022/03/12 05:55:39;;;;;;;9.18;6.70;;;5.60;99.00;;;;;;5039538;28;20033;-78
2022/03/12 05:58:07;;;;;;;14.30;7.35;;;5.60;99.20;;;;;;5073806;28;20043;-78
2022/03/12 06:00:33;;;;;;;12.77;8.00;;;5.60;99.20;;;;;;5071612;28;20542;-78
2022/03/12 06:03:02;;;;;;;10.93;6.97;;;5.60;99.20;;;;;;5052200;28;20039;-78
2022/03/12 06:05:29;;;;;;;12.32;7.18;;;5.60;99.40;;;;;;5042353;28;20036;-78
2022/03/12 06:07:55;;;;;;;13.63;7.60;;;5.60;99.40;;;;;;5075865;28;20044;-78
2022/03/12 06:10:23;;;;;;;14.73;7.15;;;5.60;99.30;;;;;;5059423;28;20399;-78
2022/03/12 06:12:58;;;;;;;10.35;7.05;;;6.40;99.40;;;;;;5058838;28;20044;-78
2022/03/12 06:15:26;;;;;;;12.13;6.93;;;5.90;99.50;;;;;;5057783;28;20404;-78
2022/03/12 06:17:52;;;;;;;14.45;7.07;;;5.60;99.50;;;;;;5058748;28;20766;-78
2022/03/12 06:20:23;;;;;;;11.30;7.15;;;6.30;99.80;;;;;;5057627;28;20561;-78
2022/03/12 06:22:53;;;;;;;11.82;7.00;;;5.60;99.80;;;;;;5093410;28;20051;-77
2022/03/12 06:25:21;;;;;;;11.82;7.25;;;5.60;99.90;;;;;;5075366;28;20032;-77
2022/03/12 06:27:54;;;;;;;10.73;7.22;;;5.80;99.90;;;;;;5093398;28;20178;-77
2022/03/12 06:30:21;;;;;;;12.50;6.55;;;6.40;99.90;;;;;;5093631;28;20063;-77
2022/03/12 06:32:48;;;;;;;11.23;6.82;;;5.80;99.80;;;;;;5074963;28;20053;-77
2022/03/12 06:35:15;;;;;;;12.02;7.07;;;5.60;99.70;;;;;;5093327;28;20028;-77
2022/03/12 06:37:41;;;;;;;11.85;7.28;;;5.60;99.70;;;;;;5092058;28;20089;-77
2022/03/12 06:40:08;;;;;;;10.40;6.60;;;5.60;99.60;;;;;;5074578;28;20040;-78
2022/03/12 06:42:36;;;;;;;10.35;6.78;;;5.50;99.80;;;;;;5091965;28;20028;-78
2022/03/12 06:45:06;;;;;;;12.98;7.90;;;5.00;99.50;;;;;;5093499;28;20073;-77
2022/03/12 06:47:33;;;;;;;13.68;6.82;;;5.50;99.70;;;;;;5093403;28;20036;-77
2022/03/12 06:50:00;;;;;;;11.27;7.10;;;5.50;99.70;;;;;;5054265;28;20056;-78
2022/03/12 06:52:28;;;;;;;14.05;7.03;;;5.50;99.60;;;;;;5038179;28;20106;-78
2022/03/12 06:54:57;;;;;;;13.88;6.90;;;5.60;99.50;;;;;;5069851;28;20072;-78
2022/03/12 06:57:23;;;;;;;10.75;7.20;;;5.60;99.60;;;;;;5058063;28;20075;-78
2022/03/12 06:59:49;;;;;;;15.65;7.45;;;5.60;99.60;;;;;;5025175;28;20140;-78
2022/03/12 07:02:15;;;;;;;12.27;7.15;;;5.60;99.70;;;;;;5074237;28;20114;-78
2022/03/12 07:04:41;;;;;;;12.25;6.70;;;5.70;99.60;;;;;;5092989;28;20036;-78
2022/03/12 07:07:07;;;;;;;9.57;6.90;;;5.30;99.40;;;;;;5092711;28;20036;-78
2022/03/12 07:09:34;;;;;;;13.13;6.68;;;5.90;99.60;;;;;;5092786;28;20097;-77
2022/03/12 07:12:00;;;;;;;10.52;7.10;;;5.60;99.60;;;;;;5091484;28;20051;-76
2022/03/12 07:14:27;;;;;;;15.73;7.07;;;5.70;99.60;;;;;;5058329;28;20040;-77
2022/03/12 07:16:54;;;;;;;15.48;6.78;;;5.80;99.60;;;;;;5074695;28;20047;-77
2022/03/12 07:19:20;;;;;;;11.10;6.80;;;5.80;99.60;;;;;;5074388;28;20048;-77
2022/03/12 07:21:49;;;;;;;11.73;7.10;;;5.80;99.30;;;;;;5074763;28;20388;-77
2022/03/12 07:24:16;;;;;;;9.88;6.97;;;5.80;99.30;;;;;;5092747;28;20040;-75
2022/03/12 07:26:43;;;;;;;12.43;7.30;;;5.80;99.10;;;;;;5092502;28;20036;-76
2022/03/12 07:29:08;;;;;;;10.85;6.53;;;6.10;99.30;;;;;;5073757;28;20039;-76
2022/03/12 07:31:37;;;;;;;12.02;6.78;;;6.00;99.50;;;;;;5070045;28;20514;-76
2022/03/12 07:34:07;;;;;;;11.40;6.80;;;5.80;99.20;;;;;;5046062;28;20051;-76
2022/03/12 07:36:33;;;;;;;12.48;7.20;;;5.80;99.30;;;;;;5069170;28;20101;-77
2022/03/12 07:39:03;;;;;;;10.93;6.63;;;6.30;99.50;;;;;;5092679;28;20048;-77
2022/03/12 07:41:31;;;;;;;12.57;7.10;;;5.80;99.30;;;;;;5075837;28;20048;-77
2022/03/12 07:43:57;;;;;;;12.75;6.95;;;5.80;99.40;;;;;;5054752;28;20033;-78
2022/03/12 07:46:26;;;;;;;12.48;7.15;;;5.80;99.50;;;;;;5052018;28;20369;-79
2022/03/12 07:48:52;;;;;;;11.50;6.57;;;6.20;99.60;;;;;;5074328;28;20036;-81
2022/03/12 07:51:18;;;;;;;10.70;6.82;;;6.10;99.70;;;;;;5073658;28;20570;-78
2022/03/12 07:53:43;;;;;;;8.93;6.63;;;5.70;99.50;;;;;;5074121;28;20383;-81
2022/03/12 07:56:09;;;;;;;10.15;6.22;;;6.80;99.90;;;;;;5092322;28;20032;-79
2022/03/12 07:58:37;;;;;;;11.68;6.93;;;6.10;99.60;;;;;;5092438;28;20032;-80
2022/03/12 08:01:05;;;;;;;14.70;7.03;;;6.00;99.40;;;;;;5073087;28;20040;-81
2022/03/12 08:03:36;;;;;;;10.30;6.65;;;6.40;99.40;;;;;;5094242;28;20036;-79
2022/03/12 08:06:31;;;;;;;10.95;6.70;;;6.20;99.30;;;;;;5095778;28;20411;-81
2022/03/12 08:09:03;;;;;;;14.57;6.78;;;6.30;99.40;;;;;;5061348;28;20399;-80
2022/03/12 08:11:29;;;;;;;10.48;7.10;;;6.30;99.60;;;;;;5077991;28;20048;-76
2022/03/12 08:14:02;;;;;;;11.15;7.18;;;6.40;99.60;;;;;;5059198;28;20051;-80
2022/03/12 08:16:35;;;;;;;10.73;7.15;;;6.40;99.50;;;;;;5077705;28;20480;-82
2022/03/12 08:19:06;;;;;;;13.18;7.50;;;6.50;99.70;;;;;;5095666;28;20523;-81
2022/03/12 08:21:33;;;;;;;11.38;6.90;;;6.50;99.50;;;;;;5058129;28;20507;-81
2022/03/12 08:24:02;;;;;;;11.82;7.35;;;6.60;99.60;;;;;;5060784;28;20131;-79
2022/03/12 08:26:29;;;;;;;10.23;7.03;;;6.70;99.60;;;;;;5059013;28;20043;-82
2022/03/12 08:28:58;;;;;;;13.60;7.53;;;6.70;99.60;;;;;;5055878;28;20048;-83
2022/03/12 08:31:24;;;;;;;12.52;7.10;;;6.80;99.60;;;;;;5077252;28;20040;-81
2022/03/12 08:33:57;;;;;;;11.38;7.25;;;6.90;99.80;;;;;;5057639;28;20109;-85
2022/03/12 08:36:22;;;;;;;13.75;7.13;;;6.90;99.80;;;;;;5043678;28;20036;-83
2022/03/12 08:38:48;;;;;;;10.27;7.40;;;7.00;99.90;;;;;;5072445;28;20052;-80
2022/03/12 08:41:15;;;;;;;18.13;7.38;;;7.70;99.90;;;;;;5074232;28;20091;-82
2022/03/12 08:43:41;;;;;;;13.10;7.85;;;7.20;99.90;;;;;;5068000;28;20042;-85
2022/03/12 08:46:07;;;;;;;12.07;6.82;;;7.10;99.90;;;;;;5077346;28;20123;-82
2022/03/12 08:48:34;;;;;;;13.10;7.70;;;7.20;99.90;;;;;;5076583;28;20040;-83
2022/03/12 08:51:01;;;;;;;16.15;7.53;;;7.70;99.90;;;;;;5052210;28;20063;-81
2022/03/12 08:53:26;;;;;;;12.38;7.55;;;8.30;99.90;;;;;;5076460;28;20121;-81
2022/03/12 08:55:55;;;;;;;12.77;7.68;;;7.40;99.90;;;;;;5077127;28;20060;-82
2022/03/12 08:58:23;;;;;;;12.18;7.55;;;7.00;99.90;;;;;;5059507;28;20450;-83
2022/03/12 09:00:52;;;;;;;13.10;7.60;;;7.60;99.90;;;;;;5060210;28;20136;-82
2022/03/12 09:03:19;;;;;;;14.55;7.70;;;7.60;99.90;;;;;;5076177;28;20480;-80
2022/03/12 09:05:50;;;;;;;15.00;8.38;;;7.80;99.90;;;;;;5094853;28;20517;-80
2022/03/12 09:08:16;;;;;;;14.57;8.00;;;7.80;99.90;;;;;;5092637;28;20062;-80
2022/03/12 09:10:48;;;;;;;17.73;7.72;;;7.80;99.90;;;;;;5060013;28;20040;-80
2022/03/12 09:13:16;;;;;;;13.80;8.70;;;7.90;99.90;;;;;;5076385;28;20392;-81
2022/03/12 09:15:42;;;;;;;14.95;8.27;;;8.00;99.90;;;;;;5018352;28;20444;-81
2022/03/12 09:18:09;;;;;;;13.07;7.95;;;8.10;99.90;;;;;;5045154;28;20124;-83
2022/03/12 09:20:43;;;;;;;13.18;7.88;;;8.10;99.90;;;;;;5033107;28;20124;-83
2022/03/12 09:23:13;;;;;;;12.18;7.88;;;8.90;99.90;;;;;;5043214;28;20449;-83
2022/03/12 09:25:39;;;;;;;12.85;7.68;;;8.20;99.90;;;;;;5037127;28;20037;-80
2022/03/12 09:28:05;;;;;;;15.48;8.30;;;8.20;99.90;;;;;;5001160;28;20502;-83
2022/03/12 09:30:30;;;;;;;16.20;8.30;;;8.30;99.90;;;;;;5011024;28;20520;-84
2022/03/12 09:32:56;;;;;;;14.45;8.55;;;9.30;99.90;;;;;;4996470;28;20045;-84
2022/03/12 09:35:24;;;;;;;20.08;8.10;;;8.50;99.90;;;;;;5031568;28;20080;-84
2022/03/12 09:37:50;;;;;;;18.52;8.95;;;9.40;99.90;;;;;;5031871;28;20077;-84
2022/03/12 09:40:16;;;;;;;14.23;9.10;;;8.60;99.90;;;;;;4995657;28;20115;-84
2022/03/12 09:42:43;;;;;;;14.05;8.88;;;8.80;99.90;;;;;;4979733;28;20042;-84
2022/03/12 09:45:13;;;;;;;12.20;8.30;;;8.90;99.90;;;;;;5029358;28;20433;-76
2022/03/12 09:47:39;;;;;;;12.25;8.27;;;9.00;99.90;;;;;;4997099;28;20414;-76
2022/03/12 09:50:05;;;;;;;12.23;8.30;;;9.20;99.90;;;;;;5014679;28;20053;-76
2022/03/12 09:52:32;;;;;;;19.83;8.70;;;9.30;99.90;;;;;;5040472;28;20381;-76
2022/03/12 09:54:58;;;;;;;13.95;8.85;;;9.30;99.90;;;;;;5039199;28;20392;-76
2022/03/12 09:57:24;;;;;;;17.17;8.90;;;9.40;99.90;;;;;;5055404;28;20044;-76
2022/03/12 09:59:50;;;;;;;14.48;9.45;;;9.50;99.90;;;;;;5034822;28;20048;-76
2022/03/12 10:02:18;;;;;;;15.48;9.55;;;10.10;99.90;;;;;;5054981;28;20040;-76
2022/03/12 10:04:44;;;;;;;15.50;9.05;;;9.60;99.90;;;;;;5035640;28;20386;-76
2022/03/12 10:07:10;;;;;;;14.77;9.05;;;9.70;99.90;;;;;;5053610;28;20477;-84
2022/03/12 10:09:39;;;;;;;14.45;9.07;;;9.80;99.90;;;;;;5050186;28;20047;-84
2022/03/12 10:12:08;;;;;;;16.60;9.70;;;9.70;99.90;;;;;;5038807;28;20055;-84
2022/03/12 10:14:35;;;;;;;18.27;9.75;;;9.90;99.90;;;;;;5055382;28;20048;-84
2022/03/12 10:17:04;;;;;;;14.68;9.13;;;9.90;99.90;;;;;;5038908;28;20496;-84
2022/03/12 10:19:31;;;;;;;17.40;10.10;;;10.00;99.90;;;;;;5072403;28;20463;-84
2022/03/12 10:21:57;;;;;;;16.35;10.25;;;10.00;99.90;;;;;;5071759;28;20059;-84
2022/03/12 10:24:24;;;;;;;16.15;9.35;;;10.10;99.90;;;;;;5038352;28;20086;-76
2022/03/12 10:26:50;;;;;;;14.52;8.98;;;10.30;99.90;;;;;;5054987;28;20564;-76
2022/03/12 10:29:16;;;;;;;20.23;9.90;;;10.50;99.90;;;;;;5055184;28;20051;-76
2022/03/12 10:31:42;;;;;;;14.77;9.45;;;10.20;99.90;;;;;;5055306;28;20048;-76
2022/03/12 10:34:22;;;;;;;14.70;9.50;;;10.30;99.90;;;;;;5055578;28;20540;-76
2022/03/12 10:36:53;;;;;;;21.45;9.73;;;10.30;99.90;;;;;;5037689;28;20041;-84
2022/03/12 10:39:38;;;;;;;16.75;9.57;;;10.30;99.90;;;;;;5072791;28;20041;-83
2022/03/12 10:42:09;;;;;;;17.45;10.18;;;10.40;99.90;;;;;;5055637;28;20033;-84
2022/03/12 10:44:41;;;;;;;16.67;9.75;;;10.50;99.90;;;;;;5055422;28;20322;-76
2022/03/12 10:47:23;;;;;;;17.30;10.85;;;10.40;99.90;;;;;;5072826;28;20037;-76
2022/03/12 10:50:00;;;;;;;18.98;10.23;;;10.60;99.90;;;;;;5058785;28;20060;-76
2022/03/12 10:52:29;;;;;;;18.73;10.25;;;10.60;99.90;;;;;;5070427;28;20102;-76
2022/03/12 10:54:55;;;;;;;19.75;11.90;;;10.60;99.90;;;;;;5035207;28;20079;-76
2022/03/12 10:57:21;;;;;;;17.38;10.25;;;11.20;99.90;;;;;;5052748;28;20041;-84
2022/03/12 10:59:55;;;;;;;19.73;9.85;;;11.20;99.90;;;;;;5018235;28;20047;-84
2022/03/12 11:02:24;;;;;;;16.33;10.80;;;10.80;99.90;;;;;;5034994;28;20037;-84
2022/03/12 11:04:49;;;;;;;14.73;9.90;;;10.80;99.90;;;;;;5034997;28;20124;-84
2022/03/12 11:07:30;;;;;;;15.98;10.55;;;10.90;99.90;;;;;;5034397;28;20120;-84
2022/03/12 11:10:01;;;;;;;16.38;10.68;;;10.90;99.90;;;;;;5036659;28;20049;-83
2022/03/12 11:12:35;;;;;;;12.93;9.68;;;11.00;99.90;;;;;;5038764;28;20041;-84
2022/03/12 11:15:15;;;;;;;26.83;10.88;;;11.00;99.90;;;;;;5039242;28;20040;-84
2022/03/12 11:17:52;;;;;;;29.23;11.40;;;11.10;99.90;;;;;;5036360;28;20044;-78
2022/03/12 11:20:28;;;;;;;22.65;11.07;;;10.90;99.90;;;;;;5027125;28;20043;-76
2022/03/12 11:23:07;;;;;;;17.48;10.40;;;11.20;99.90;;;;;;5072195;28;20072;-77
2022/03/12 11:25:36;;;;;;;14.30;9.90;;;11.60;99.90;;;;;;5069464;28;20094;-76
2022/03/12 11:28:28;;;;;;;15.80;10.82;;;11.30;99.90;;;;;;5051190;28;20051;-76
2022/03/12 11:30:57;;;;;;;15.45;11.27;;;11.40;99.90;;;;;;5071670;28;20106;-77
2022/03/12 11:33:35;;;;;;;15.05;10.35;;;11.40;99.90;;;;;;5028585;28;20488;-76
2022/03/12 11:36:09;;;;;;;15.30;10.70;;;11.40;99.90;;;;;;5033740;28;20085;-76
2022/03/12 11:38:40;;;;;;;15.40;10.65;;;11.50;99.90;;;;;;5034289;28;20049;-76
2022/03/12 11:41:22;;;;;;;16.08;10.80;;;11.50;99.90;;;;;;5035761;28;20060;-75
2022/03/12 11:44:01;;;;;;;14.65;9.55;;;11.60;99.90;;;;;;5046379;28;20045;-75
2022/03/12 11:46:27;;;;;;;13.93;9.07;;;11.60;99.90;;;;;;5026063;28;20048;-74
2022/03/12 11:48:53;;;;;;;16.13;9.20;;;11.70;99.90;;;;;;5026686;28;20032;-75
2022/03/12 11:51:23;;;;;;;12.38;8.65;;;12.00;99.90;;;;;;5049387;28;20592;-76
2022/03/12 11:53:53;;;;;;;18.08;8.77;;;11.80;99.90;;;;;;5058723;28;20102;-74
2022/03/12 11:56:20;;;;;;;13.57;8.23;;;11.90;99.90;;;;;;5096008;28;20512;-74
2022/03/12 11:59:10;;;;;;;12.75;8.00;;;12.00;99.90;;;;;;5059346;28;20048;-75
2022/03/12 12:02:29;;;;;;;19.42;7.72;;;12.10;99.90;;;;;;5096154;28;20093;-76
2022/03/12 12:04:46;;;;;;;15.50;7.90;;;12.10;99.90;;;;;;5092224;28;20484;-75
2022/03/12 12:07:15;;;;;;;15.43;7.30;;;12.20;99.90;;;;;;5061604;28;20093;-77
2022/03/12 12:09:41;;;;;;;29.02;7.55;;;12.30;99.90;;;;;;5095180;28;20032;-77
2022/03/12 12:12:13;;;;;;;16.50;7.80;;;12.30;99.90;;;;;;5095040;28;20036;-77
2022/03/12 12:14:43;;;;;;;12.63;7.78;;;12.30;99.90;;;;;;5074411;28;20039;-75
2022/03/12 12:17:11;;;;;;;14.90;7.72;;;12.30;99.90;;;;;;5084594;28;20040;-79
2022/03/12 12:19:37;;;;;;;16.05;7.35;;;12.40;99.90;;;;;;5094632;28;20035;-76
2022/03/12 12:22:09;;;;;;;13.50;6.93;;;12.40;99.90;;;;;;5094700;28;20055;-76
2022/03/12 12:24:43;;;;;;;9.80;6.88;;;12.50;99.90;;;;;;5077345;28;20551;-77
2022/03/12 12:27:14;;;;;;;11.82;6.93;;;12.60;99.90;;;;;;5060988;28;20498;-76
2022/03/12 12:29:56;;;;;;;11.93;6.95;;;12.60;99.90;;;;;;5077242;28;20499;-76
2022/03/12 12:32:24;;;;;;;14.10;7.85;;;12.40;99.90;;;;;;5095201;28;20038;-77
2022/03/12 12:35:22;;;;;;;12.60;7.63;;;12.70;99.90;;;;;;5060917;28;20083;-83
2022/03/12 12:38:09;;;;;;;13.45;7.15;;;12.70;99.90;;;;;;5071109;28;20056;-83
2022/03/12 12:40:46;;;;;;;13.30;7.57;;;12.70;99.90;;;;;;5040708;28;20396;-83
2022/03/12 12:43:14;;;;;;;11.70;7.25;;;12.80;99.90;;;;;;5058370;28;20047;-83
2022/03/12 12:46:27;;;;;;;15.35;6.90;;;12.80;99.90;;;;;;5060499;28;20087;-83
2022/03/12 12:49:01;;;;;;;12.63;6.93;;;12.80;99.90;;;;;;5054750;28;20040;-84
2022/03/12 12:51:27;;;;;;;12.82;6.82;;;12.90;99.90;;;;;;5071677;28;20128;-85
2022/03/12 12:54:02;;;;;;;14.02;7.10;;;12.90;99.90;;;;;;5071585;28;20083;-84
2022/03/12 12:56:29;;;;;;;11.20;7.10;;;12.90;99.90;;;;;;5056104;28;20439;-84
2022/03/12 12:59:01;;;;;;;11.18;7.70;;;12.90;99.90;;;;;;5056323;28;20041;-84